sensor_id;sensor_type;location;lat;lon;timestamp;temperature;humidity
22469;DHT22;11401;50.792;4.352;2022-07-29T00:02:26;24.10;49.00
22469;DHT22;11401;50.792;4.352;2022-07-29T00:04:54;24.10;49.00
22469;DHT22;11401;50.792;4.352;2022-07-29T00:07:21;24.10;48.70
22469;DHT22;11401;50.792;4.352;2022-07-29T00:09:48;24.10;48.70
22469;DHT22;11401;50.792;4.352;2022-07-29T00:12:19;24.10;48.60
22469;DHT22;11401;50.792;4.352;2022-07-29T00:14:55;24.10;48.90
22469;DHT22;11401;50.792;4.352;2022-07-29T00:17:26;24.10;48.90
22469;DHT22;11401;50.792;4.352;2022-07-29T00:19:53;24.00;48.90
22469;DHT22;11401;50.792;4.352;2022-07-29T00:22:20;24.00;48.80
22469;DHT22;11401;50.792;4.352;2022-07-29T00:24:48;24.00;48.90
22469;DHT22;11401;50.792;4.352;2022-07-29T00:27:16;24.00;48.90
22469;DHT22;11401;50.792;4.352;2022-07-29T00:29:43;24.00;49.00
22469;DHT22;11401;50.792;4.352;2022-07-29T00:32:10;24.00;49.20
22469;DHT22;11401;50.792;4.352;2022-07-29T00:34:37;24.00;48.90
22469;DHT22;11401;50.792;4.352;2022-07-29T00:37:22;24.00;48.90
22469;DHT22;11401;50.792;4.352;2022-07-29T00:39:49;24.00;49.10
22469;DHT22;11401;50.792;4.352;2022-07-29T00:42:17;24.00;48.90
22469;DHT22;11401;50.792;4.352;2022-07-29T00:44:44;23.90;49.10
22469;DHT22;11401;50.792;4.352;2022-07-29T00:47:11;24.00;49.30
22469;DHT22;11401;50.792;4.352;2022-07-29T00:49:41;24.00;49.20
22469;DHT22;11401;50.792;4.352;2022-07-29T00:52:09;24.00;49.30
22469;DHT22;11401;50.792;4.352;2022-07-29T00:54:38;23.90;49.30
22469;DHT22;11401;50.792;4.352;2022-07-29T00:57:11;23.90;49.20
22469;DHT22;11401;50.792;4.352;2022-07-29T00:59:38;23.90;49.90
22469;DHT22;11401;50.792;4.352;2022-07-29T01:02:05;23.90;49.20
22469;DHT22;11401;50.792;4.352;2022-07-29T01:04:33;23.90;49.40
22469;DHT22;11401;50.792;4.352;2022-07-29T01:07:01;23.90;49.50
22469;DHT22;11401;50.792;4.352;2022-07-29T01:09:31;23.80;49.30
22469;DHT22;11401;50.792;4.352;2022-07-29T01:12:17;23.80;49.40
22469;DHT22;11401;50.792;4.352;2022-07-29T01:14:45;23.80;49.30
22469;DHT22;11401;50.792;4.352;2022-07-29T01:17:33;23.80;49.40
22469;DHT22;11401;50.792;4.352;2022-07-29T01:25:48;23.80;49.40
22469;DHT22;11401;50.792;4.352;2022-07-29T01:28:44;23.80;49.70
22469;DHT22;11401;50.792;4.352;2022-07-29T01:31:18;23.70;49.40
22469;DHT22;11401;50.792;4.352;2022-07-29T01:33:57;23.70;49.70
22469;DHT22;11401;50.792;4.352;2022-07-29T01:36:36;23.70;49.80
22469;DHT22;11401;50.792;4.352;2022-07-29T01:39:06;23.70;49.70
22469;DHT22;11401;50.792;4.352;2022-07-29T01:41:37;23.60;49.90
22469;DHT22;11401;50.792;4.352;2022-07-29T01:44:22;23.60;49.90
22469;DHT22;11401;50.792;4.352;2022-07-29T01:46:56;23.70;49.60
22469;DHT22;11401;50.792;4.352;2022-07-29T01:49:28;23.60;49.80
22469;DHT22;11401;50.792;4.352;2022-07-29T01:52:03;23.60;50.00
22469;DHT22;11401;50.792;4.352;2022-07-29T01:54:37;23.60;49.90
22469;DHT22;11401;50.792;4.352;2022-07-29T01:57:08;23.60;49.80
22469;DHT22;11401;50.792;4.352;2022-07-29T01:59:37;23.60;50.40
22469;DHT22;11401;50.792;4.352;2022-07-29T02:02:06;23.60;49.90
22469;DHT22;11401;50.792;4.352;2022-07-29T02:04:36;23.60;49.80
22469;DHT22;11401;50.792;4.352;2022-07-29T02:07:10;23.50;49.90
22469;DHT22;11401;50.792;4.352;2022-07-29T02:09:40;23.50;50.00
22469;DHT22;11401;50.792;4.352;2022-07-29T02:12:08;23.50;50.20
22469;DHT22;11401;50.792;4.352;2022-07-29T02:14:43;23.50;50.10
22469;DHT22;11401;50.792;4.352;2022-07-29T02:17:12;23.50;50.00
22469;DHT22;11401;50.792;4.352;2022-07-29T02:19:41;23.40;50.10
22469;DHT22;11401;50.792;4.352;2022-07-29T02:22:10;23.40;50.30
22469;DHT22;11401;50.792;4.352;2022-07-29T02:24:39;23.40;50.30
22469;DHT22;11401;50.792;4.352;2022-07-29T02:27:07;23.40;50.90
22469;DHT22;11401;50.792;4.352;2022-07-29T02:29:35;23.30;50.20
22469;DHT22;11401;50.792;4.352;2022-07-29T02:32:04;23.30;50.40
22469;DHT22;11401;50.792;4.352;2022-07-29T02:34:33;23.30;50.10
22469;DHT22;11401;50.792;4.352;2022-07-29T02:37:02;23.30;50.50
22469;DHT22;11401;50.792;4.352;2022-07-29T02:39:30;23.30;50.20
22469;DHT22;11401;50.792;4.352;2022-07-29T02:42:03;23.20;50.30
22469;DHT22;11401;50.792;4.352;2022-07-29T02:44:31;23.30;50.30
22469;DHT22;11401;50.792;4.352;2022-07-29T02:50:29;23.20;50.10
22469;DHT22;11401;50.792;4.352;2022-07-29T02:53:05;23.20;50.00
22469;DHT22;11401;50.792;4.352;2022-07-29T02:55:37;23.10;50.50
22469;DHT22;11401;50.792;4.352;2022-07-29T02:58:26;23.10;50.60
22469;DHT22;11401;50.792;4.352;2022-07-29T03:01:13;23.10;50.70
22469;DHT22;11401;50.792;4.352;2022-07-29T03:03:48;23.10;50.40
22469;DHT22;11401;50.792;4.352;2022-07-29T03:06:18;23.00;50.50
22469;DHT22;11401;50.792;4.352;2022-07-29T03:09:06;23.00;50.50
22469;DHT22;11401;50.792;4.352;2022-07-29T03:11:40;23.00;50.40
22469;DHT22;11401;50.792;4.352;2022-07-29T03:14:19;23.00;50.50
22469;DHT22;11401;50.792;4.352;2022-07-29T03:16:48;23.00;50.70
22469;DHT22;11401;50.792;4.352;2022-07-29T03:19:16;22.90;50.70
22469;DHT22;11401;50.792;4.352;2022-07-29T03:21:43;22.90;51.40
22469;DHT22;11401;50.792;4.352;2022-07-29T03:24:10;22.90;50.90
22469;DHT22;11401;50.792;4.352;2022-07-29T03:26:37;22.90;51.00
22469;DHT22;11401;50.792;4.352;2022-07-29T03:29:04;22.90;50.90
22469;DHT22;11401;50.792;4.352;2022-07-29T03:31:31;22.80;51.70
22469;DHT22;11401;50.792;4.352;2022-07-29T03:33:59;22.80;51.00
22469;DHT22;11401;50.792;4.352;2022-07-29T03:36:26;22.80;51.10
22469;DHT22;11401;50.792;4.352;2022-07-29T03:38:53;22.80;51.10
22469;DHT22;11401;50.792;4.352;2022-07-29T03:41:22;22.80;51.20
22469;DHT22;11401;50.792;4.352;2022-07-29T03:43:49;22.70;51.80
22469;DHT22;11401;50.792;4.352;2022-07-29T03:46:20;22.70;51.30
22469;DHT22;11401;50.792;4.352;2022-07-29T03:48:52;22.60;51.50
22469;DHT22;11401;50.792;4.352;2022-07-29T03:51:21;22.60;51.60
22469;DHT22;11401;50.792;4.352;2022-07-29T03:54:01;22.50;51.60
22469;DHT22;11401;50.792;4.352;2022-07-29T03:56:42;22.60;51.80
22469;DHT22;11401;50.792;4.352;2022-07-29T03:59:13;22.50;51.80
22469;DHT22;11401;50.792;4.352;2022-07-29T04:01:41;22.50;51.90
22469;DHT22;11401;50.792;4.352;2022-07-29T04:04:09;22.40;51.90
22469;DHT22;11401;50.792;4.352;2022-07-29T04:06:44;22.40;52.10
22469;DHT22;11401;50.792;4.352;2022-07-29T04:09:14;22.50;51.90
22469;DHT22;11401;50.792;4.352;2022-07-29T04:11:41;22.40;52.30
22469;DHT22;11401;50.792;4.352;2022-07-29T04:14:29;22.40;52.10
22469;DHT22;11401;50.792;4.352;2022-07-29T04:16:56;22.40;52.80
22469;DHT22;11401;50.792;4.352;2022-07-29T04:19:23;22.40;52.30
22469;DHT22;11401;50.792;4.352;2022-07-29T04:21:50;22.40;52.40
22469;DHT22;11401;50.792;4.352;2022-07-29T04:24:17;22.40;52.40
22469;DHT22;11401;50.792;4.352;2022-07-29T04:26:46;22.30;52.40
22469;DHT22;11401;50.792;4.352;2022-07-29T04:29:13;22.40;52.50
22469;DHT22;11401;50.792;4.352;2022-07-29T04:31:41;22.40;52.40
22469;DHT22;11401;50.792;4.352;2022-07-29T04:34:09;22.40;53.00
22469;DHT22;11401;50.792;4.352;2022-07-29T04:36:36;22.30;52.50
22469;DHT22;11401;50.792;4.352;2022-07-29T04:39:04;22.30;52.40
22469;DHT22;11401;50.792;4.352;2022-07-29T04:41:31;22.30;52.50
22469;DHT22;11401;50.792;4.352;2022-07-29T04:43:59;22.30;52.50
22469;DHT22;11401;50.792;4.352;2022-07-29T04:46:33;22.30;52.60
22469;DHT22;11401;50.792;4.352;2022-07-29T04:49:00;22.30;52.50
22469;DHT22;11401;50.792;4.352;2022-07-29T04:51:27;22.30;52.70
22469;DHT22;11401;50.792;4.352;2022-07-29T04:53:54;22.40;52.70
22469;DHT22;11401;50.792;4.352;2022-07-29T04:56:21;22.40;52.80
22469;DHT22;11401;50.792;4.352;2022-07-29T04:58:47;22.40;52.70
22469;DHT22;11401;50.792;4.352;2022-07-29T05:01:14;22.40;52.80
22469;DHT22;11401;50.792;4.352;2022-07-29T05:03:42;22.40;52.80
22469;DHT22;11401;50.792;4.352;2022-07-29T05:06:08;22.40;52.80
22469;DHT22;11401;50.792;4.352;2022-07-29T05:08:36;22.40;52.90
22469;DHT22;11401;50.792;4.352;2022-07-29T05:11:03;22.40;53.00
22469;DHT22;11401;50.792;4.352;2022-07-29T05:13:38;22.30;53.00
22469;DHT22;11401;50.792;4.352;2022-07-29T05:16:12;22.30;53.00
22469;DHT22;11401;50.792;4.352;2022-07-29T05:18:40;22.40;53.10
22469;DHT22;11401;50.792;4.352;2022-07-29T05:21:07;22.40;53.10
22469;DHT22;11401;50.792;4.352;2022-07-29T05:23:33;22.40;53.20
22469;DHT22;11401;50.792;4.352;2022-07-29T05:26:00;22.40;53.20
22469;DHT22;11401;50.792;4.352;2022-07-29T05:28:28;22.40;53.20
22469;DHT22;11401;50.792;4.352;2022-07-29T05:30:55;22.40;53.30
22469;DHT22;11401;50.792;4.352;2022-07-29T05:33:23;22.50;53.20
22469;DHT22;11401;50.792;4.352;2022-07-29T05:36:04;22.50;53.20
22469;DHT22;11401;50.792;4.352;2022-07-29T05:38:34;22.50;53.20
22469;DHT22;11401;50.792;4.352;2022-07-29T05:41:05;22.60;53.30
22469;DHT22;11401;50.792;4.352;2022-07-29T05:43:32;22.60;53.30
22469;DHT22;11401;50.792;4.352;2022-07-29T05:45:59;22.60;53.50
22469;DHT22;11401;50.792;4.352;2022-07-29T05:48:27;22.60;53.50
22469;DHT22;11401;50.792;4.352;2022-07-29T05:50:54;22.60;53.50
22469;DHT22;11401;50.792;4.352;2022-07-29T05:53:21;22.60;53.60
22469;DHT22;11401;50.792;4.352;2022-07-29T05:55:48;22.60;53.60
22469;DHT22;11401;50.792;4.352;2022-07-29T05:58:15;22.60;53.40
22469;DHT22;11401;50.792;4.352;2022-07-29T06:00:43;22.60;52.90
22469;DHT22;11401;50.792;4.352;2022-07-29T06:03:10;22.70;52.70
22469;DHT22;11401;50.792;4.352;2022-07-29T06:05:37;22.70;52.70
22469;DHT22;11401;50.792;4.352;2022-07-29T06:08:05;22.70;52.60
22469;DHT22;11401;50.792;4.352;2022-07-29T06:10:35;22.70;52.50
22469;DHT22;11401;50.792;4.352;2022-07-29T06:13:02;22.70;52.50
22469;DHT22;11401;50.792;4.352;2022-07-29T06:15:29;22.80;52.20
22469;DHT22;11401;50.792;4.352;2022-07-29T06:17:56;22.80;52.00
22469;DHT22;11401;50.792;4.352;2022-07-29T06:20:30;22.80;52.10
22469;DHT22;11401;50.792;4.352;2022-07-29T06:22:58;22.80;52.00
22469;DHT22;11401;50.792;4.352;2022-07-29T06:25:26;22.80;52.00
22469;DHT22;11401;50.792;4.352;2022-07-29T06:27:56;22.80;52.10
22469;DHT22;11401;50.792;4.352;2022-07-29T06:30:23;22.80;52.10
22469;DHT22;11401;50.792;4.352;2022-07-29T06:32:50;22.90;52.10
22469;DHT22;11401;50.792;4.352;2022-07-29T06:35:17;22.90;52.80
22469;DHT22;11401;50.792;4.352;2022-07-29T06:38:04;22.90;52.20
22469;DHT22;11401;50.792;4.352;2022-07-29T06:40:51;22.90;52.10
22469;DHT22;11401;50.792;4.352;2022-07-29T06:43:35;23.00;52.30
22469;DHT22;11401;50.792;4.352;2022-07-29T06:46:18;22.90;52.10
22469;DHT22;11401;50.792;4.352;2022-07-29T06:48:46;23.00;52.30
22469;DHT22;11401;50.792;4.352;2022-07-29T06:51:14;23.00;52.50
22469;DHT22;11401;50.792;4.352;2022-07-29T06:53:41;23.00;52.30
22469;DHT22;11401;50.792;4.352;2022-07-29T06:56:28;23.00;52.40
22469;DHT22;11401;50.792;4.352;2022-07-29T06:58:55;23.10;52.40
22469;DHT22;11401;50.792;4.352;2022-07-29T07:01:22;23.10;52.60
22469;DHT22;11401;50.792;4.352;2022-07-29T07:03:49;23.20;52.60
22469;DHT22;11401;50.792;4.352;2022-07-29T07:06:16;23.20;52.50
22469;DHT22;11401;50.792;4.352;2022-07-29T07:08:43;23.30;52.70
22469;DHT22;11401;50.792;4.352;2022-07-29T07:11:10;23.30;52.70
22469;DHT22;11401;50.792;4.352;2022-07-29T07:13:38;23.30;52.40
22469;DHT22;11401;50.792;4.352;2022-07-29T07:16:05;23.40;52.30
22469;DHT22;11401;50.792;4.352;2022-07-29T07:18:32;23.40;52.50
22469;DHT22;11401;50.792;4.352;2022-07-29T07:20:59;23.40;52.50
22469;DHT22;11401;50.792;4.352;2022-07-29T07:23:26;23.40;52.70
22469;DHT22;11401;50.792;4.352;2022-07-29T07:25:53;23.40;52.50
22469;DHT22;11401;50.792;4.352;2022-07-29T07:28:20;23.50;52.50
22469;DHT22;11401;50.792;4.352;2022-07-29T07:30:51;23.50;52.50
22469;DHT22;11401;50.792;4.352;2022-07-29T07:33:18;23.50;52.60
22469;DHT22;11401;50.792;4.352;2022-07-29T07:35:46;23.60;52.80
22469;DHT22;11401;50.792;4.352;2022-07-29T07:38:13;23.60;52.40
22469;DHT22;11401;50.792;4.352;2022-07-29T07:40:40;23.60;52.20
22469;DHT22;11401;50.792;4.352;2022-07-29T07:43:07;23.70;53.30
22469;DHT22;11401;50.792;4.352;2022-07-29T07:45:35;23.70;52.80
22469;DHT22;11401;50.792;4.352;2022-07-29T07:48:04;23.80;52.80
22469;DHT22;11401;50.792;4.352;2022-07-29T07:50:31;23.80;52.80
22469;DHT22;11401;50.792;4.352;2022-07-29T07:52:59;23.90;53.20
22469;DHT22;11401;50.792;4.352;2022-07-29T07:55:28;23.90;53.50
22469;DHT22;11401;50.792;4.352;2022-07-29T07:58:15;24.00;52.80
22469;DHT22;11401;50.792;4.352;2022-07-29T08:00:42;24.00;53.00
22469;DHT22;11401;50.792;4.352;2022-07-29T08:03:09;24.00;53.00
22469;DHT22;11401;50.792;4.352;2022-07-29T08:05:43;24.10;52.90
22469;DHT22;11401;50.792;4.352;2022-07-29T08:08:10;24.10;52.80
22469;DHT22;11401;50.792;4.352;2022-07-29T08:10:37;24.10;52.50
22469;DHT22;11401;50.792;4.352;2022-07-29T08:13:23;24.20;52.60
22469;DHT22;11401;50.792;4.352;2022-07-29T08:15:51;24.20;52.10
22469;DHT22;11401;50.792;4.352;2022-07-29T08:18:28;24.20;52.10
22469;DHT22;11401;50.792;4.352;2022-07-29T08:20:56;24.20;52.70
22469;DHT22;11401;50.792;4.352;2022-07-29T08:23:23;24.30;53.00
22469;DHT22;11401;50.792;4.352;2022-07-29T08:25:51;24.30;53.20
22469;DHT22;11401;50.792;4.352;2022-07-29T08:28:20;24.30;53.20
22469;DHT22;11401;50.792;4.352;2022-07-29T08:30:51;24.30;53.00
22469;DHT22;11401;50.792;4.352;2022-07-29T08:33:18;24.40;53.30
22469;DHT22;11401;50.792;4.352;2022-07-29T08:35:45;24.40;53.60
22469;DHT22;11401;50.792;4.352;2022-07-29T08:38:13;24.40;53.70
22469;DHT22;11401;50.792;4.352;2022-07-29T08:40:39;24.40;53.50
22469;DHT22;11401;50.792;4.352;2022-07-29T08:43:08;24.40;53.60
22469;DHT22;11401;50.792;4.352;2022-07-29T08:45:49;24.40;53.60
22469;DHT22;11401;50.792;4.352;2022-07-29T08:48:22;24.40;53.70
22469;DHT22;11401;50.792;4.352;2022-07-29T08:50:56;24.40;53.80
22469;DHT22;11401;50.792;4.352;2022-07-29T08:53:26;24.40;53.70
22469;DHT22;11401;50.792;4.352;2022-07-29T08:55:54;24.40;53.80
22469;DHT22;11401;50.792;4.352;2022-07-29T08:58:22;24.40;53.90
22469;DHT22;11401;50.792;4.352;2022-07-29T09:00:53;24.40;53.80
22469;DHT22;11401;50.792;4.352;2022-07-29T09:03:24;24.40;53.80
22469;DHT22;11401;50.792;4.352;2022-07-29T09:05:51;24.50;53.60
22469;DHT22;11401;50.792;4.352;2022-07-29T09:08:19;24.50;54.00
22469;DHT22;11401;50.792;4.352;2022-07-29T09:10:47;24.40;54.00
22469;DHT22;11401;50.792;4.352;2022-07-29T09:13:14;24.50;53.70
22469;DHT22;11401;50.792;4.352;2022-07-29T09:15:41;24.50;54.10
22469;DHT22;11401;50.792;4.352;2022-07-29T09:18:08;24.50;54.10
22469;DHT22;11401;50.792;4.352;2022-07-29T09:20:55;24.50;53.90
22469;DHT22;11401;50.792;4.352;2022-07-29T09:23:40;24.50;53.90
22469;DHT22;11401;50.792;4.352;2022-07-29T09:26:09;24.50;53.80
22469;DHT22;11401;50.792;4.352;2022-07-29T09:28:41;24.50;53.70
22469;DHT22;11401;50.792;4.352;2022-07-29T09:31:08;24.60;53.70
22469;DHT22;11401;50.792;4.352;2022-07-29T09:33:36;24.50;53.80
22469;DHT22;11401;50.792;4.352;2022-07-29T09:36:07;24.60;53.90
22469;DHT22;11401;50.792;4.352;2022-07-29T09:38:35;24.60;54.00
22469;DHT22;11401;50.792;4.352;2022-07-29T09:41:05;24.50;54.10
22469;DHT22;11401;50.792;4.352;2022-07-29T09:43:34;24.50;54.40
22469;DHT22;11401;50.792;4.352;2022-07-29T09:46:12;24.60;54.30
22469;DHT22;11401;50.792;4.352;2022-07-29T09:48:39;24.70;54.30
22469;DHT22;11401;50.792;4.352;2022-07-29T09:51:17;24.60;54.20
22469;DHT22;11401;50.792;4.352;2022-07-29T09:53:48;24.70;53.30
22469;DHT22;11401;50.792;4.352;2022-07-29T09:56:19;24.70;53.00
22469;DHT22;11401;50.792;4.352;2022-07-29T09:58:46;24.70;52.40
22469;DHT22;11401;50.792;4.352;2022-07-29T10:01:13;24.70;51.90
22469;DHT22;11401;50.792;4.352;2022-07-29T10:03:51;24.70;51.80
22469;DHT22;11401;50.792;4.352;2022-07-29T10:06:19;24.80;52.20
22469;DHT22;11401;50.792;4.352;2022-07-29T10:08:46;24.70;52.50
22469;DHT22;11401;50.792;4.352;2022-07-29T10:11:15;24.70;52.40
22469;DHT22;11401;50.792;4.352;2022-07-29T10:13:44;24.70;52.30
22469;DHT22;11401;50.792;4.352;2022-07-29T10:16:12;24.70;51.50
22469;DHT22;11401;50.792;4.352;2022-07-29T10:18:41;24.70;52.20
22469;DHT22;11401;50.792;4.352;2022-07-29T10:21:08;24.70;51.80
22469;DHT22;11401;50.792;4.352;2022-07-29T10:23:36;24.70;52.20
22469;DHT22;11401;50.792;4.352;2022-07-29T10:26:13;24.70;52.10
22469;DHT22;11401;50.792;4.352;2022-07-29T10:28:41;24.70;52.30
22469;DHT22;11401;50.792;4.352;2022-07-29T10:31:16;24.70;52.70
22469;DHT22;11401;50.792;4.352;2022-07-29T10:34:07;24.70;52.90
22469;DHT22;11401;50.792;4.352;2022-07-29T10:37:07;24.70;52.40
22469;DHT22;11401;50.792;4.352;2022-07-29T10:40:04;24.70;51.70
22469;DHT22;11401;50.792;4.352;2022-07-29T10:42:55;24.70;51.50
22469;DHT22;11401;50.792;4.352;2022-07-29T10:45:23;24.60;51.60
22469;DHT22;11401;50.792;4.352;2022-07-29T10:48:02;24.70;51.50
22469;DHT22;11401;50.792;4.352;2022-07-29T10:50:59;24.70;51.80
22469;DHT22;11401;50.792;4.352;2022-07-29T10:53:48;24.70;50.80
22469;DHT22;11401;50.792;4.352;2022-07-29T10:56:31;24.70;50.60
22469;DHT22;11401;50.792;4.352;2022-07-29T11:01:49;24.60;50.30
22469;DHT22;11401;50.792;4.352;2022-07-29T11:07:10;24.70;50.30
22469;DHT22;11401;50.792;4.352;2022-07-29T11:09:37;24.70;49.90
22469;DHT22;11401;50.792;4.352;2022-07-29T11:15:18;24.80;49.10
22469;DHT22;11401;50.792;4.352;2022-07-29T11:22:59;24.80;49.20
22469;DHT22;11401;50.792;4.352;2022-07-29T11:25:26;24.80;49.90
22469;DHT22;11401;50.792;4.352;2022-07-29T11:28:19;24.80;49.10
22469;DHT22;11401;50.792;4.352;2022-07-29T11:30:53;24.90;48.80
22469;DHT22;11401;50.792;4.352;2022-07-29T11:33:31;24.90;48.70
22469;DHT22;11401;50.792;4.352;2022-07-29T11:36:18;24.90;48.90
22469;DHT22;11401;50.792;4.352;2022-07-29T11:39:26;24.90;48.30
22469;DHT22;11401;50.792;4.352;2022-07-29T11:45:11;24.90;48.00
22469;DHT22;11401;50.792;4.352;2022-07-29T11:48:00;24.90;47.70
22469;DHT22;11401;50.792;4.352;2022-07-29T11:50:47;24.80;48.00
22469;DHT22;11401;50.792;4.352;2022-07-29T11:53:15;24.80;48.10
22469;DHT22;11401;50.792;4.352;2022-07-29T11:55:43;24.80;48.20
22469;DHT22;11401;50.792;4.352;2022-07-29T11:58:30;24.80;48.00
22469;DHT22;11401;50.792;4.352;2022-07-29T12:01:13;24.90;47.90
22469;DHT22;11401;50.792;4.352;2022-07-29T12:03:41;24.90;47.10
22469;DHT22;11401;50.792;4.352;2022-07-29T12:06:14;24.90;47.30
22469;DHT22;11401;50.792;4.352;2022-07-29T12:08:44;24.90;47.20
22469;DHT22;11401;50.792;4.352;2022-07-29T12:11:19;24.90;46.90
22469;DHT22;11401;50.792;4.352;2022-07-29T12:13:50;24.90;46.80
22469;DHT22;11401;50.792;4.352;2022-07-29T12:16:19;24.90;46.70
22469;DHT22;11401;50.792;4.352;2022-07-29T12:18:59;24.90;47.20
22469;DHT22;11401;50.792;4.352;2022-07-29T12:22:02;24.90;47.50
22469;DHT22;11401;50.792;4.352;2022-07-29T12:24:25;24.90;47.50
22469;DHT22;11401;50.792;4.352;2022-07-29T12:26:59;24.90;47.50
22469;DHT22;11401;50.792;4.352;2022-07-29T12:29:26;24.90;47.50
22469;DHT22;11401;50.792;4.352;2022-07-29T12:32:02;25.00;47.70
22469;DHT22;11401;50.792;4.352;2022-07-29T12:34:30;24.90;48.00
22469;DHT22;11401;50.792;4.352;2022-07-29T12:36:58;24.90;48.00
22469;DHT22;11401;50.792;4.352;2022-07-29T12:39:25;24.90;47.20
22469;DHT22;11401;50.792;4.352;2022-07-29T12:41:54;24.90;46.90
22469;DHT22;11401;50.792;4.352;2022-07-29T12:44:47;24.90;47.50
22469;DHT22;11401;50.792;4.352;2022-07-29T12:47:16;25.00;46.90
22469;DHT22;11401;50.792;4.352;2022-07-29T12:49:45;25.10;46.40
22469;DHT22;11401;50.792;4.352;2022-07-29T12:52:29;25.10;47.10
22469;DHT22;11401;50.792;4.352;2022-07-29T12:54:57;25.10;47.40
22469;DHT22;11401;50.792;4.352;2022-07-29T12:57:24;25.00;47.30
22469;DHT22;11401;50.792;4.352;2022-07-29T13:00:10;25.10;47.30
22469;DHT22;11401;50.792;4.352;2022-07-29T13:02:39;25.20;47.20
22469;DHT22;11401;50.792;4.352;2022-07-29T13:05:07;25.10;47.30
22469;DHT22;11401;50.792;4.352;2022-07-29T13:07:35;25.10;47.90
22469;DHT22;11401;50.792;4.352;2022-07-29T13:10:21;25.20;47.40
22469;DHT22;11401;50.792;4.352;2022-07-29T13:13:10;25.20;46.00
22469;DHT22;11401;50.792;4.352;2022-07-29T13:15:43;25.30;46.70
22469;DHT22;11401;50.792;4.352;2022-07-29T13:18:46;25.20;47.50
22469;DHT22;11401;50.792;4.352;2022-07-29T13:21:14;25.30;47.50
22469;DHT22;11401;50.792;4.352;2022-07-29T13:23:42;25.20;48.60
22469;DHT22;11401;50.792;4.352;2022-07-29T13:26:10;25.20;47.80
22469;DHT22;11401;50.792;4.352;2022-07-29T13:28:38;25.20;47.80
22469;DHT22;11401;50.792;4.352;2022-07-29T13:31:05;25.20;47.70
22469;DHT22;11401;50.792;4.352;2022-07-29T13:33:32;25.20;47.30
22469;DHT22;11401;50.792;4.352;2022-07-29T13:35:59;25.10;46.80
22469;DHT22;11401;50.792;4.352;2022-07-29T13:38:27;25.10;46.90
22469;DHT22;11401;50.792;4.352;2022-07-29T13:40:57;25.10;47.10
22469;DHT22;11401;50.792;4.352;2022-07-29T13:43:24;25.20;47.10
22469;DHT22;11401;50.792;4.352;2022-07-29T13:45:51;25.10;46.40
22469;DHT22;11401;50.792;4.352;2022-07-29T13:48:18;25.10;46.60
22469;DHT22;11401;50.792;4.352;2022-07-29T13:50:45;25.20;46.70
22469;DHT22;11401;50.792;4.352;2022-07-29T13:53:13;25.20;46.30
22469;DHT22;11401;50.792;4.352;2022-07-29T13:55:44;25.10;46.30
22469;DHT22;11401;50.792;4.352;2022-07-29T13:58:11;25.10;46.20
22469;DHT22;11401;50.792;4.352;2022-07-29T14:00:37;25.20;46.00
22469;DHT22;11401;50.792;4.352;2022-07-29T14:03:04;25.20;46.00
22469;DHT22;11401;50.792;4.352;2022-07-29T14:05:34;25.20;46.40
22469;DHT22;11401;50.792;4.352;2022-07-29T14:08:01;25.20;46.40
22469;DHT22;11401;50.792;4.352;2022-07-29T14:10:28;25.20;46.30
22469;DHT22;11401;50.792;4.352;2022-07-29T14:12:55;25.20;46.00
22469;DHT22;11401;50.792;4.352;2022-07-29T14:15:22;25.20;45.70
22469;DHT22;11401;50.792;4.352;2022-07-29T14:17:49;25.20;45.40
22469;DHT22;11401;50.792;4.352;2022-07-29T14:20:17;25.20;45.40
22469;DHT22;11401;50.792;4.352;2022-07-29T14:22:44;25.30;45.50
22469;DHT22;11401;50.792;4.352;2022-07-29T14:25:11;25.30;45.20
22469;DHT22;11401;50.792;4.352;2022-07-29T14:27:41;25.20;45.10
22469;DHT22;11401;50.792;4.352;2022-07-29T14:30:08;25.30;45.40
22469;DHT22;11401;50.792;4.352;2022-07-29T14:32:35;25.30;45.60
22469;DHT22;11401;50.792;4.352;2022-07-29T14:35:03;25.30;45.70
22469;DHT22;11401;50.792;4.352;2022-07-29T14:37:30;25.30;45.50
22469;DHT22;11401;50.792;4.352;2022-07-29T14:40:07;25.30;44.90
22469;DHT22;11401;50.792;4.352;2022-07-29T14:42:34;25.30;44.60
22469;DHT22;11401;50.792;4.352;2022-07-29T14:45:01;25.30;44.70
22469;DHT22;11401;50.792;4.352;2022-07-29T14:47:28;25.30;45.10
22469;DHT22;11401;50.792;4.352;2022-07-29T14:49:54;25.30;45.40
22469;DHT22;11401;50.792;4.352;2022-07-29T14:52:21;25.40;45.90
22469;DHT22;11401;50.792;4.352;2022-07-29T14:54:48;25.40;46.10
22469;DHT22;11401;50.792;4.352;2022-07-29T14:57:15;25.40;46.60
22469;DHT22;11401;50.792;4.352;2022-07-29T14:59:43;25.30;47.00
22469;DHT22;11401;50.792;4.352;2022-07-29T15:02:09;25.30;47.20
22469;DHT22;11401;50.792;4.352;2022-07-29T15:04:36;25.30;47.80
22469;DHT22;11401;50.792;4.352;2022-07-29T15:07:03;25.30;47.90
22469;DHT22;11401;50.792;4.352;2022-07-29T15:09:31;25.20;48.30
22469;DHT22;11401;50.792;4.352;2022-07-29T15:12:02;25.20;48.80
22469;DHT22;11401;50.792;4.352;2022-07-29T15:14:29;25.20;48.80
22469;DHT22;11401;50.792;4.352;2022-07-29T15:16:56;25.20;49.30
22469;DHT22;11401;50.792;4.352;2022-07-29T15:19:23;25.20;48.90
22469;DHT22;11401;50.792;4.352;2022-07-29T15:21:50;25.20;49.40
22469;DHT22;11401;50.792;4.352;2022-07-29T15:24:18;25.10;48.70
22469;DHT22;11401;50.792;4.352;2022-07-29T15:26:45;25.20;49.20
22469;DHT22;11401;50.792;4.352;2022-07-29T15:29:12;25.20;48.80
22469;DHT22;11401;50.792;4.352;2022-07-29T15:31:40;25.10;49.40
22469;DHT22;11401;50.792;4.352;2022-07-29T15:34:07;25.20;49.50
22469;DHT22;11401;50.792;4.352;2022-07-29T15:36:34;25.10;49.70
22469;DHT22;11401;50.792;4.352;2022-07-29T15:39:20;25.10;49.70
22469;DHT22;11401;50.792;4.352;2022-07-29T15:41:48;25.10;49.90
22469;DHT22;11401;50.792;4.352;2022-07-29T15:44:15;25.10;50.10
22469;DHT22;11401;50.792;4.352;2022-07-29T15:46:42;25.10;50.10
22469;DHT22;11401;50.792;4.352;2022-07-29T15:49:39;25.10;50.20
22469;DHT22;11401;50.792;4.352;2022-07-29T15:52:19;25.10;50.30
22469;DHT22;11401;50.792;4.352;2022-07-29T15:54:55;25.10;50.80
22469;DHT22;11401;50.792;4.352;2022-07-29T15:57:24;25.10;50.50
22469;DHT22;11401;50.792;4.352;2022-07-29T15:59:51;25.00;50.70
22469;DHT22;11401;50.792;4.352;2022-07-29T16:02:18;25.00;50.70
22469;DHT22;11401;50.792;4.352;2022-07-29T16:04:45;25.00;50.60
22469;DHT22;11401;50.792;4.352;2022-07-29T16:07:13;25.00;51.00
22469;DHT22;11401;50.792;4.352;2022-07-29T16:09:41;25.10;50.70
22469;DHT22;11401;50.792;4.352;2022-07-29T16:12:08;25.10;50.60
22469;DHT22;11401;50.792;4.352;2022-07-29T16:14:41;25.10;50.80
22469;DHT22;11401;50.792;4.352;2022-07-29T16:17:08;25.10;51.20
22469;DHT22;11401;50.792;4.352;2022-07-29T16:19:41;25.10;51.00
22469;DHT22;11401;50.792;4.352;2022-07-29T16:22:09;25.10;51.20